Roadside, Pennsylvania
Current Conditions -  °F | °C
As of 1:53 PM on Friday 31 Oct 2014 (Local Time) from KHGR Reporting Station
Overcast Overcast  
Wind Chill: 11°   Ceiling: 5500
Heat Index: 11°   Visibility: 10mi
Dew Point:   Wind: 0mph
Humidity: 54%   Direction: NA
Pressure: 29.9"   Gusts: NA
Location:  39.7777°N, 77.5693°W
Report Text: KHGR 311753Z 00000KT 10SM FEW035 OVC055 11/02 A2990 RMK AO2 SLP138 T01110022 10111 20067 58023
Loading
Personal Weather Stations






























Interactive Weather Map
Tropical Storm Tracking
New forecast layout! Learn more

10-Day Weather Forecast

Advertisements
Track Severe Weather on mobile